sensor_id;sensor_type;location;lat;lon;timestamp;P1;durP1;ratioP1;P2;durP2;ratioP2
4547;SDS011;2286;51.570;7.090;2023-07-30T00:01:32;4.90;;;4.50;;
4547;SDS011;2286;51.570;7.090;2023-07-30T00:03:59;6.70;;;4.37;;
4547;SDS011;2286;51.570;7.090;2023-07-30T00:06:26;6.93;;;5.13;;
4547;SDS011;2286;51.570;7.090;2023-07-30T00:08:53;5.20;;;4.00;;
4547;SDS011;2286;51.570;7.090;2023-07-30T00:11:20;10.27;;;5.03;;
4547;SDS011;2286;51.570;7.090;2023-07-30T00:13:48;4.93;;;4.10;;
4547;SDS011;2286;51.570;7.090;2023-07-30T00:16:14;5.73;;;5.23;;
4547;SDS011;2286;51.570;7.090;2023-07-30T00:18:41;9.80;;;4.93;;
4547;SDS011;2286;51.570;7.090;2023-07-30T00:21:08;7.00;;;5.20;;
4547;SDS011;2286;51.570;7.090;2023-07-30T00:23:35;8.93;;;5.17;;
4547;SDS011;2286;51.570;7.090;2023-07-30T00:26:01;5.50;;;4.53;;
4547;SDS011;2286;51.570;7.090;2023-07-30T00:28:28;8.70;;;5.10;;
4547;SDS011;2286;51.570;7.090;2023-07-30T00:30:56;9.90;;;5.37;;
4547;SDS011;2286;51.570;7.090;2023-07-30T00:33:23;6.17;;;4.83;;
4547;SDS011;2286;51.570;7.090;2023-07-30T00:35:50;5.97;;;5.17;;
4547;SDS011;2286;51.570;7.090;2023-07-30T00:38:17;9.97;;;5.27;;
4547;SDS011;2286;51.570;7.090;2023-07-30T00:40:44;9.53;;;4.63;;
4547;SDS011;2286;51.570;7.090;2023-07-30T00:43:11;8.00;;;4.90;;
4547;SDS011;2286;51.570;7.090;2023-07-30T00:45:38;7.40;;;5.23;;
4547;SDS011;2286;51.570;7.090;2023-07-30T00:48:09;9.63;;;5.13;;
4547;SDS011;2286;51.570;7.090;2023-07-30T00:50:37;5.97;;;4.80;;
4547;SDS011;2286;51.570;7.090;2023-07-30T00:53:05;9.53;;;4.70;;
4547;SDS011;2286;51.570;7.090;2023-07-30T00:55:33;7.43;;;5.20;;
4547;SDS011;2286;51.570;7.090;2023-07-30T00:58:01;7.63;;;4.80;;
4547;SDS011;2286;51.570;7.090;2023-07-30T01:00:28;5.53;;;4.87;;
4547;SDS011;2286;51.570;7.090;2023-07-30T01:02:57;9.03;;;5.03;;
4547;SDS011;2286;51.570;7.090;2023-07-30T01:05:25;7.80;;;4.80;;
4547;SDS011;2286;51.570;7.090;2023-07-30T01:07:52;7.87;;;4.50;;
4547;SDS011;2286;51.570;7.090;2023-07-30T01:10:19;10.00;;;4.43;;
4547;SDS011;2286;51.570;7.090;2023-07-30T01:12:46;11.30;;;5.20;;
4547;SDS011;2286;51.570;7.090;2023-07-30T01:15:14;5.63;;;4.60;;
4547;SDS011;2286;51.570;7.090;2023-07-30T01:17:41;6.90;;;5.00;;
4547;SDS011;2286;51.570;7.090;2023-07-30T01:20:08;9.13;;;4.50;;
4547;SDS011;2286;51.570;7.090;2023-07-30T01:22:38;10.57;;;5.13;;
4547;SDS011;2286;51.570;7.090;2023-07-30T01:25:05;5.83;;;4.47;;
4547;SDS011;2286;51.570;7.090;2023-07-30T01:27:33;8.63;;;4.70;;
4547;SDS011;2286;51.570;7.090;2023-07-30T01:30:03;5.00;;;4.33;;
4547;SDS011;2286;51.570;7.090;2023-07-30T01:32:34;8.50;;;4.53;;
4547;SDS011;2286;51.570;7.090;2023-07-30T01:35:02;6.40;;;4.77;;
4547;SDS011;2286;51.570;7.090;2023-07-30T01:37:30;11.43;;;5.20;;
4547;SDS011;2286;51.570;7.090;2023-07-30T01:40:00;8.33;;;5.10;;
4547;SDS011;2286;51.570;7.090;2023-07-30T01:42:28;10.33;;;5.47;;
4547;SDS011;2286;51.570;7.090;2023-07-30T01:44:55;8.13;;;4.63;;
4547;SDS011;2286;51.570;7.090;2023-07-30T01:47:22;7.27;;;5.00;;
4547;SDS011;2286;51.570;7.090;2023-07-30T01:49:49;7.60;;;4.50;;
4547;SDS011;2286;51.570;7.090;2023-07-30T01:52:16;6.80;;;4.20;;
4547;SDS011;2286;51.570;7.090;2023-07-30T01:54:42;5.73;;;4.73;;
4547;SDS011;2286;51.570;7.090;2023-07-30T01:57:11;9.00;;;5.23;;
4547;SDS011;2286;51.570;7.090;2023-07-30T01:59:38;7.70;;;5.07;;
4547;SDS011;2286;51.570;7.090;2023-07-30T02:02:04;8.47;;;5.43;;
4547;SDS011;2286;51.570;7.090;2023-07-30T02:04:32;12.47;;;5.30;;
4547;SDS011;2286;51.570;7.090;2023-07-30T02:06:59;6.67;;;5.00;;
4547;SDS011;2286;51.570;7.090;2023-07-30T02:09:25;13.60;;;6.40;;
4547;SDS011;2286;51.570;7.090;2023-07-30T02:11:52;11.40;;;6.10;;
4547;SDS011;2286;51.570;7.090;2023-07-30T02:14:20;8.87;;;5.47;;
4547;SDS011;2286;51.570;7.090;2023-07-30T02:16:47;12.17;;;5.10;;
4547;SDS011;2286;51.570;7.090;2023-07-30T02:19:14;9.23;;;5.97;;
4547;SDS011;2286;51.570;7.090;2023-07-30T02:21:40;11.30;;;6.17;;
4547;SDS011;2286;51.570;7.090;2023-07-30T02:24:08;12.20;;;5.47;;
4547;SDS011;2286;51.570;7.090;2023-07-30T02:26:35;8.00;;;5.77;;
4547;SDS011;2286;51.570;7.090;2023-07-30T02:29:02;8.10;;;5.87;;
4547;SDS011;2286;51.570;7.090;2023-07-30T02:31:30;6.63;;;5.70;;
4547;SDS011;2286;51.570;7.090;2023-07-30T02:33:57;14.50;;;5.70;;
4547;SDS011;2286;51.570;7.090;2023-07-30T02:36:23;9.43;;;5.60;;
4547;SDS011;2286;51.570;7.090;2023-07-30T02:38:50;9.53;;;5.47;;
4547;SDS011;2286;51.570;7.090;2023-07-30T02:41:17;7.70;;;5.60;;
4547;SDS011;2286;51.570;7.090;2023-07-30T02:43:44;8.30;;;5.00;;
4547;SDS011;2286;51.570;7.090;2023-07-30T02:46:11;11.07;;;6.10;;
4547;SDS011;2286;51.570;7.090;2023-07-30T02:48:40;8.37;;;5.67;;
4547;SDS011;2286;51.570;7.090;2023-07-30T02:51:07;14.23;;;6.10;;
4547;SDS011;2286;51.570;7.090;2023-07-30T02:53:34;11.93;;;6.13;;
4547;SDS011;2286;51.570;7.090;2023-07-30T02:56:01;11.37;;;6.07;;
4547;SDS011;2286;51.570;7.090;2023-07-30T02:58:28;8.60;;;5.90;;
4547;SDS011;2286;51.570;7.090;2023-07-30T03:00:54;8.20;;;5.67;;
4547;SDS011;2286;51.570;7.090;2023-07-30T03:03:22;7.17;;;5.90;;
4547;SDS011;2286;51.570;7.090;2023-07-30T03:05:50;8.27;;;4.73;;
4547;SDS011;2286;51.570;7.090;2023-07-30T03:08:17;8.10;;;6.33;;
4547;SDS011;2286;51.570;7.090;2023-07-30T03:10:44;8.33;;;5.80;;
4547;SDS011;2286;51.570;7.090;2023-07-30T03:13:11;7.43;;;6.20;;
4547;SDS011;2286;51.570;7.090;2023-07-30T03:15:38;9.97;;;6.20;;
4547;SDS011;2286;51.570;7.090;2023-07-30T03:18:05;10.43;;;6.70;;
4547;SDS011;2286;51.570;7.090;2023-07-30T03:20:32;10.77;;;5.70;;
4547;SDS011;2286;51.570;7.090;2023-07-30T03:23:01;12.37;;;6.70;;
4547;SDS011;2286;51.570;7.090;2023-07-30T03:25:28;9.87;;;6.63;;
4547;SDS011;2286;51.570;7.090;2023-07-30T03:27:55;12.20;;;6.90;;
4547;SDS011;2286;51.570;7.090;2023-07-30T03:30:22;10.30;;;6.57;;
4547;SDS011;2286;51.570;7.090;2023-07-30T03:32:49;9.30;;;6.90;;
4547;SDS011;2286;51.570;7.090;2023-07-30T03:35:16;7.60;;;6.03;;
4547;SDS011;2286;51.570;7.090;2023-07-30T03:37:43;12.03;;;7.77;;
4547;SDS011;2286;51.570;7.090;2023-07-30T03:40:11;10.93;;;6.97;;
4547;SDS011;2286;51.570;7.090;2023-07-30T03:42:41;12.37;;;6.77;;
4547;SDS011;2286;51.570;7.090;2023-07-30T03:45:09;15.47;;;8.10;;
4547;SDS011;2286;51.570;7.090;2023-07-30T03:47:36;15.73;;;8.10;;
4547;SDS011;2286;51.570;7.090;2023-07-30T03:50:03;12.20;;;7.23;;
4547;SDS011;2286;51.570;7.090;2023-07-30T03:52:30;15.30;;;6.10;;
4547;SDS011;2286;51.570;7.090;2023-07-30T03:54:57;7.87;;;6.90;;
4547;SDS011;2286;51.570;7.090;2023-07-30T03:57:26;11.90;;;6.60;;
4547;SDS011;2286;51.570;7.090;2023-07-30T03:59:53;16.40;;;6.70;;
4547;SDS011;2286;51.570;7.090;2023-07-30T04:02:20;9.53;;;6.00;;
4547;SDS011;2286;51.570;7.090;2023-07-30T04:04:47;10.77;;;5.67;;
4547;SDS011;2286;51.570;7.090;2023-07-30T04:07:15;11.03;;;5.80;;
4547;SDS011;2286;51.570;7.090;2023-07-30T04:09:42;15.10;;;6.10;;
4547;SDS011;2286;51.570;7.090;2023-07-30T04:12:09;8.57;;;5.70;;
4547;SDS011;2286;51.570;7.090;2023-07-30T04:14:37;14.17;;;6.67;;
4547;SDS011;2286;51.570;7.090;2023-07-30T04:17:04;10.70;;;5.93;;
4547;SDS011;2286;51.570;7.090;2023-07-30T04:19:31;11.83;;;6.93;;
4547;SDS011;2286;51.570;7.090;2023-07-30T04:21:58;13.43;;;5.90;;
4547;SDS011;2286;51.570;7.090;2023-07-30T04:24:25;10.90;;;5.93;;
4547;SDS011;2286;51.570;7.090;2023-07-30T04:26:52;11.30;;;4.93;;
4547;SDS011;2286;51.570;7.090;2023-07-30T04:29:19;9.13;;;5.47;;
4547;SDS011;2286;51.570;7.090;2023-07-30T04:31:48;8.83;;;5.20;;
4547;SDS011;2286;51.570;7.090;2023-07-30T04:34:15;9.17;;;5.80;;
4547;SDS011;2286;51.570;7.090;2023-07-30T04:36:42;11.70;;;5.43;;
4547;SDS011;2286;51.570;7.090;2023-07-30T04:39:09;11.47;;;5.43;;
4547;SDS011;2286;51.570;7.090;2023-07-30T04:41:37;11.87;;;4.70;;
4547;SDS011;2286;51.570;7.090;2023-07-30T04:44:04;11.20;;;5.17;;
4547;SDS011;2286;51.570;7.090;2023-07-30T04:46:31;8.93;;;5.83;;
4547;SDS011;2286;51.570;7.090;2023-07-30T04:49:01;9.07;;;5.70;;
4547;SDS011;2286;51.570;7.090;2023-07-30T04:51:28;8.53;;;5.87;;
4547;SDS011;2286;51.570;7.090;2023-07-30T04:53:55;10.10;;;5.53;;
4547;SDS011;2286;51.570;7.090;2023-07-30T04:56:22;9.00;;;5.57;;
4547;SDS011;2286;51.570;7.090;2023-07-30T04:58:51;11.17;;;6.13;;
4547;SDS011;2286;51.570;7.090;2023-07-30T05:01:18;9.20;;;5.87;;
4547;SDS011;2286;51.570;7.090;2023-07-30T05:03:45;11.03;;;6.43;;
4547;SDS011;2286;51.570;7.090;2023-07-30T05:06:14;12.30;;;5.77;;
4547;SDS011;2286;51.570;7.090;2023-07-30T05:08:41;9.60;;;6.23;;
4547;SDS011;2286;51.570;7.090;2023-07-30T05:11:08;9.53;;;5.87;;
4547;SDS011;2286;51.570;7.090;2023-07-30T05:13:35;12.43;;;5.43;;
4547;SDS011;2286;51.570;7.090;2023-07-30T05:16:02;11.27;;;6.20;;
4547;SDS011;2286;51.570;7.090;2023-07-30T05:18:29;9.77;;;5.20;;
4547;SDS011;2286;51.570;7.090;2023-07-30T05:20:56;9.10;;;5.73;;
4547;SDS011;2286;51.570;7.090;2023-07-30T05:23:25;12.63;;;5.20;;
4547;SDS011;2286;51.570;7.090;2023-07-30T05:25:52;11.83;;;5.57;;
4547;SDS011;2286;51.570;7.090;2023-07-30T05:28:19;9.17;;;6.00;;
4547;SDS011;2286;51.570;7.090;2023-07-30T05:30:45;13.77;;;6.17;;
4547;SDS011;2286;51.570;7.090;2023-07-30T05:33:12;11.77;;;6.87;;
4547;SDS011;2286;51.570;7.090;2023-07-30T05:35:39;15.20;;;7.50;;
4547;SDS011;2286;51.570;7.090;2023-07-30T05:38:06;14.03;;;7.30;;
4547;SDS011;2286;51.570;7.090;2023-07-30T05:40:35;13.00;;;7.33;;
4547;SDS011;2286;51.570;7.090;2023-07-30T05:43:02;15.97;;;7.23;;
4547;SDS011;2286;51.570;7.090;2023-07-30T05:45:29;12.60;;;7.03;;
4547;SDS011;2286;51.570;7.090;2023-07-30T05:47:56;10.80;;;7.10;;
4547;SDS011;2286;51.570;7.090;2023-07-30T05:50:24;12.63;;;7.23;;
4547;SDS011;2286;51.570;7.090;2023-07-30T05:52:51;13.20;;;6.60;;
4547;SDS011;2286;51.570;7.090;2023-07-30T05:55:18;13.13;;;6.27;;
4547;SDS011;2286;51.570;7.090;2023-07-30T05:57:46;19.50;;;6.60;;
4547;SDS011;2286;51.570;7.090;2023-07-30T06:00:13;12.20;;;6.53;;
4547;SDS011;2286;51.570;7.090;2023-07-30T06:02:40;12.70;;;6.30;;
4547;SDS011;2286;51.570;7.090;2023-07-30T06:05:07;14.67;;;5.73;;
4547;SDS011;2286;51.570;7.090;2023-07-30T06:07:34;16.23;;;6.90;;
4547;SDS011;2286;51.570;7.090;2023-07-30T06:10:01;19.13;;;8.30;;
4547;SDS011;2286;51.570;7.090;2023-07-30T06:12:29;18.30;;;6.70;;
4547;SDS011;2286;51.570;7.090;2023-07-30T06:14:57;11.73;;;5.47;;
4547;SDS011;2286;51.570;7.090;2023-07-30T06:17:24;17.80;;;7.87;;
4547;SDS011;2286;51.570;7.090;2023-07-30T06:19:51;12.43;;;5.73;;
4547;SDS011;2286;51.570;7.090;2023-07-30T06:22:18;12.60;;;6.10;;
4547;SDS011;2286;51.570;7.090;2023-07-30T06:24:45;14.47;;;6.10;;
4547;SDS011;2286;51.570;7.090;2023-07-30T06:27:12;12.40;;;6.00;;
4547;SDS011;2286;51.570;7.090;2023-07-30T06:29:39;13.93;;;5.43;;
4547;SDS011;2286;51.570;7.090;2023-07-30T06:32:08;12.97;;;5.23;;
4547;SDS011;2286;51.570;7.090;2023-07-30T06:34:35;12.10;;;5.27;;
4547;SDS011;2286;51.570;7.090;2023-07-30T06:37:02;12.50;;;5.27;;
4547;SDS011;2286;51.570;7.090;2023-07-30T06:39:29;7.70;;;4.87;;
4547;SDS011;2286;51.570;7.090;2023-07-30T06:41:56;10.27;;;5.80;;
4547;SDS011;2286;51.570;7.090;2023-07-30T06:44:23;11.97;;;5.50;;
4547;SDS011;2286;51.570;7.090;2023-07-30T06:46:50;13.03;;;6.07;;
4547;SDS011;2286;51.570;7.090;2023-07-30T06:49:19;10.90;;;5.67;;
4547;SDS011;2286;51.570;7.090;2023-07-30T06:51:46;9.67;;;5.27;;
4547;SDS011;2286;51.570;7.090;2023-07-30T06:54:13;12.53;;;5.40;;
4547;SDS011;2286;51.570;7.090;2023-07-30T06:56:40;9.50;;;5.80;;
4547;SDS011;2286;51.570;7.090;2023-07-30T06:59:07;8.53;;;5.40;;
4547;SDS011;2286;51.570;7.090;2023-07-30T07:01:34;9.43;;;5.13;;
4547;SDS011;2286;51.570;7.090;2023-07-30T07:04:01;14.43;;;6.03;;
4547;SDS011;2286;51.570;7.090;2023-07-30T07:06:30;15.87;;;7.63;;
4547;SDS011;2286;51.570;7.090;2023-07-30T07:08:57;14.07;;;6.70;;
4547;SDS011;2286;51.570;7.090;2023-07-30T07:11:24;11.53;;;7.20;;
4547;SDS011;2286;51.570;7.090;2023-07-30T07:13:52;9.80;;;6.30;;
4547;SDS011;2286;51.570;7.090;2023-07-30T07:16:19;8.80;;;6.00;;
4547;SDS011;2286;51.570;7.090;2023-07-30T07:18:46;7.70;;;5.60;;
4547;SDS011;2286;51.570;7.090;2023-07-30T07:21:14;9.70;;;5.10;;
4547;SDS011;2286;51.570;7.090;2023-07-30T07:23:42;9.60;;;5.20;;
4547;SDS011;2286;51.570;7.090;2023-07-30T07:26:09;8.63;;;4.20;;
4547;SDS011;2286;51.570;7.090;2023-07-30T07:28:36;9.03;;;5.77;;
4547;SDS011;2286;51.570;7.090;2023-07-30T07:31:03;9.43;;;4.47;;
4547;SDS011;2286;51.570;7.090;2023-07-30T07:33:30;8.10;;;4.90;;
4547;SDS011;2286;51.570;7.090;2023-07-30T07:36:03;8.00;;;5.23;;
4547;SDS011;2286;51.570;7.090;2023-07-30T07:38:31;6.73;;;4.30;;
4547;SDS011;2286;51.570;7.090;2023-07-30T07:40:59;7.63;;;4.07;;
4547;SDS011;2286;51.570;7.090;2023-07-30T07:43:27;7.33;;;3.67;;
4547;SDS011;2286;51.570;7.090;2023-07-30T07:45:54;7.37;;;3.77;;
4547;SDS011;2286;51.570;7.090;2023-07-30T07:48:21;8.13;;;3.23;;
4547;SDS011;2286;51.570;7.090;2023-07-30T07:50:48;10.53;;;3.83;;
4547;SDS011;2286;51.570;7.090;2023-07-30T07:53:15;10.33;;;4.00;;
4547;SDS011;2286;51.570;7.090;2023-07-30T07:55:42;7.20;;;3.53;;
4547;SDS011;2286;51.570;7.090;2023-07-30T07:58:11;11.57;;;4.30;;
4547;SDS011;2286;51.570;7.090;2023-07-30T08:00:38;10.40;;;4.07;;
4547;SDS011;2286;51.570;7.090;2023-07-30T08:03:05;6.50;;;3.47;;
4547;SDS011;2286;51.570;7.090;2023-07-30T08:05:31;8.77;;;4.20;;
4547;SDS011;2286;51.570;7.090;2023-07-30T08:07:58;12.30;;;3.80;;
4547;SDS011;2286;51.570;7.090;2023-07-30T08:10:25;8.30;;;3.87;;
4547;SDS011;2286;51.570;7.090;2023-07-30T08:12:52;9.87;;;4.50;;
4547;SDS011;2286;51.570;7.090;2023-07-30T08:15:21;11.60;;;4.50;;
4547;SDS011;2286;51.570;7.090;2023-07-30T08:17:48;10.57;;;4.10;;
4547;SDS011;2286;51.570;7.090;2023-07-30T08:20:15;7.60;;;2.87;;
4547;SDS011;2286;51.570;7.090;2023-07-30T08:22:42;15.03;;;4.53;;
4547;SDS011;2286;51.570;7.090;2023-07-30T08:25:09;10.13;;;4.43;;
4547;SDS011;2286;51.570;7.090;2023-07-30T08:27:36;8.60;;;4.33;;
4547;SDS011;2286;51.570;7.090;2023-07-30T08:30:04;10.63;;;4.70;;
4547;SDS011;2286;51.570;7.090;2023-07-30T08:32:33;11.23;;;4.70;;
4547;SDS011;2286;51.570;7.090;2023-07-30T08:35:00;8.90;;;4.37;;
4547;SDS011;2286;51.570;7.090;2023-07-30T08:37:28;8.03;;;4.07;;
4547;SDS011;2286;51.570;7.090;2023-07-30T08:39:55;11.03;;;3.83;;
4547;SDS011;2286;51.570;7.090;2023-07-30T08:42:22;9.30;;;3.70;;
4547;SDS011;2286;51.570;7.090;2023-07-30T08:44:49;10.03;;;3.47;;
4547;SDS011;2286;51.570;7.090;2023-07-30T08:47:16;6.50;;;3.20;;
4547;SDS011;2286;51.570;7.090;2023-07-30T08:49:44;5.80;;;3.10;;
4547;SDS011;2286;51.570;7.090;2023-07-30T08:52:11;7.90;;;3.20;;
4547;SDS011;2286;51.570;7.090;2023-07-30T08:54:38;7.60;;;4.43;;
4547;SDS011;2286;51.570;7.090;2023-07-30T08:57:07;8.73;;;4.07;;
4547;SDS011;2286;51.570;7.090;2023-07-30T08:59:37;5.87;;;3.33;;
4547;SDS011;2286;51.570;7.090;2023-07-30T09:02:07;10.30;;;3.77;;
4547;SDS011;2286;51.570;7.090;2023-07-30T09:04:39;14.30;;;3.80;;
4547;SDS011;2286;51.570;7.090;2023-07-30T09:07:10;8.33;;;3.50;;
4547;SDS011;2286;51.570;7.090;2023-07-30T09:09:37;16.00;;;4.07;;
4547;SDS011;2286;51.570;7.090;2023-07-30T09:12:12;11.27;;;4.17;;
4547;SDS011;2286;51.570;7.090;2023-07-30T09:14:40;12.17;;;4.60;;
4547;SDS011;2286;51.570;7.090;2023-07-30T09:17:09;14.80;;;4.17;;
4547;SDS011;2286;51.570;7.090;2023-07-30T09:19:37;8.73;;;3.87;;
4547;SDS011;2286;51.570;7.090;2023-07-30T09:22:04;10.00;;;3.20;;
4547;SDS011;2286;51.570;7.090;2023-07-30T09:24:33;11.30;;;3.30;;
4547;SDS011;2286;51.570;7.090;2023-07-30T09:27:01;8.67;;;3.60;;
4547;SDS011;2286;51.570;7.090;2023-07-30T09:29:29;6.37;;;2.97;;
4547;SDS011;2286;51.570;7.090;2023-07-30T09:31:56;8.67;;;2.63;;
4547;SDS011;2286;51.570;7.090;2023-07-30T09:34:23;7.37;;;3.00;;
4547;SDS011;2286;51.570;7.090;2023-07-30T09:36:52;9.60;;;2.90;;
4547;SDS011;2286;51.570;7.090;2023-07-30T09:39:20;7.93;;;2.90;;
4547;SDS011;2286;51.570;7.090;2023-07-30T09:41:50;8.60;;;3.90;;
4547;SDS011;2286;51.570;7.090;2023-07-30T09:44:18;8.43;;;2.80;;
4547;SDS011;2286;51.570;7.090;2023-07-30T09:46:46;6.10;;;3.00;;
4547;SDS011;2286;51.570;7.090;2023-07-30T09:49:15;7.90;;;2.80;;
4547;SDS011;2286;51.570;7.090;2023-07-30T09:51:43;8.87;;;2.97;;
4547;SDS011;2286;51.570;7.090;2023-07-30T09:54:11;8.90;;;2.70;;
4547;SDS011;2286;51.570;7.090;2023-07-30T09:56:39;6.63;;;2.93;;
4547;SDS011;2286;51.570;7.090;2023-07-30T09:59:09;7.90;;;2.73;;
4547;SDS011;2286;51.570;7.090;2023-07-30T10:01:38;9.10;;;3.20;;
4547;SDS011;2286;51.570;7.090;2023-07-30T10:04:07;6.03;;;2.93;;
4547;SDS011;2286;51.570;7.090;2023-07-30T10:06:36;8.83;;;2.43;;
4547;SDS011;2286;51.570;7.090;2023-07-30T10:09:06;5.10;;;2.00;;
4547;SDS011;2286;51.570;7.090;2023-07-30T10:11:35;6.60;;;2.23;;
4547;SDS011;2286;51.570;7.090;2023-07-30T10:14:03;5.33;;;2.50;;
4547;SDS011;2286;51.570;7.090;2023-07-30T10:16:32;7.93;;;2.43;;
4547;SDS011;2286;51.570;7.090;2023-07-30T10:18:59;7.70;;;2.10;;
4547;SDS011;2286;51.570;7.090;2023-07-30T10:21:27;6.27;;;2.50;;
4547;SDS011;2286;51.570;7.090;2023-07-30T10:24:00;6.17;;;2.23;;
4547;SDS011;2286;51.570;7.090;2023-07-30T10:26:28;4.37;;;1.87;;
4547;SDS011;2286;51.570;7.090;2023-07-30T10:29:09;6.53;;;2.70;;
4547;SDS011;2286;51.570;7.090;2023-07-30T10:31:42;5.10;;;2.30;;
4547;SDS011;2286;51.570;7.090;2023-07-30T10:34:13;7.50;;;2.30;;
4547;SDS011;2286;51.570;7.090;2023-07-30T10:36:41;4.80;;;2.10;;
4547;SDS011;2286;51.570;7.090;2023-07-30T10:39:10;5.73;;;2.20;;
4547;SDS011;2286;51.570;7.090;2023-07-30T10:41:38;5.10;;;2.50;;
4547;SDS011;2286;51.570;7.090;2023-07-30T10:44:05;4.77;;;2.00;;
4547;SDS011;2286;51.570;7.090;2023-07-30T10:46:32;7.87;;;2.27;;
4547;SDS011;2286;51.570;7.090;2023-07-30T10:49:03;8.60;;;2.80;;
4547;SDS011;2286;51.570;7.090;2023-07-30T10:51:32;7.20;;;2.73;;
4547;SDS011;2286;51.570;7.090;2023-07-30T10:53:59;5.13;;;2.50;;
4547;SDS011;2286;51.570;7.090;2023-07-30T10:56:26;4.90;;;2.20;;
4547;SDS011;2286;51.570;7.090;2023-07-30T10:58:53;6.87;;;2.77;;
4547;SDS011;2286;51.570;7.090;2023-07-30T11:01:23;12.77;;;2.57;;
4547;SDS011;2286;51.570;7.090;2023-07-30T11:03:51;6.77;;;2.60;;
4547;SDS011;2286;51.570;7.090;2023-07-30T11:06:23;6.80;;;2.30;;
4547;SDS011;2286;51.570;7.090;2023-07-30T11:08:51;4.47;;;2.37;;
4547;SDS011;2286;51.570;7.090;2023-07-30T11:11:18;7.63;;;2.03;;
4547;SDS011;2286;51.570;7.090;2023-07-30T11:13:46;5.13;;;3.17;;
4547;SDS011;2286;51.570;7.090;2023-07-30T11:16:14;3.67;;;1.90;;
4547;SDS011;2286;51.570;7.090;2023-07-30T11:18:42;6.10;;;2.33;;
4547;SDS011;2286;51.570;7.090;2023-07-30T11:21:12;5.30;;;1.43;;
4547;SDS011;2286;51.570;7.090;2023-07-30T11:23:43;4.70;;;1.73;;
4547;SDS011;2286;51.570;7.090;2023-07-30T11:26:13;4.37;;;1.80;;
4547;SDS011;2286;51.570;7.090;2023-07-30T11:28:41;5.40;;;1.90;;
4547;SDS011;2286;51.570;7.090;2023-07-30T11:31:10;5.13;;;1.70;;
4547;SDS011;2286;51.570;7.090;2023-07-30T11:33:39;3.73;;;1.60;;
4547;SDS011;2286;51.570;7.090;2023-07-30T11:36:08;7.67;;;1.50;;
4547;SDS011;2286;51.570;7.090;2023-07-30T11:38:37;5.07;;;1.70;;
4547;SDS011;2286;51.570;7.090;2023-07-30T11:41:06;4.10;;;1.80;;
4547;SDS011;2286;51.570;7.090;2023-07-30T11:43:39;5.23;;;2.30;;
4547;SDS011;2286;51.570;7.090;2023-07-30T11:46:08;11.80;;;1.73;;
4547;SDS011;2286;51.570;7.090;2023-07-30T11:48:36;3.63;;;1.90;;
4547;SDS011;2286;51.570;7.090;2023-07-30T11:51:05;5.20;;;2.10;;
4547;SDS011;2286;51.570;7.090;2023-07-30T11:53:44;6.83;;;2.20;;
4547;SDS011;2286;51.570;7.090;2023-07-30T11:56:16;4.23;;;1.53;;
4547;SDS011;2286;51.570;7.090;2023-07-30T11:58:45;5.60;;;2.03;;
4547;SDS011;2286;51.570;7.090;2023-07-30T12:01:13;4.93;;;1.80;;
4547;SDS011;2286;51.570;7.090;2023-07-30T12:03:40;3.27;;;1.30;;
4547;SDS011;2286;51.570;7.090;2023-07-30T12:06:07;4.47;;;1.60;;
4547;SDS011;2286;51.570;7.090;2023-07-30T12:08:35;5.97;;;1.87;;
4547;SDS011;2286;51.570;7.090;2023-07-30T12:11:03;4.67;;;1.87;;
4547;SDS011;2286;51.570;7.090;2023-07-30T12:13:32;8.00;;;1.63;;
4547;SDS011;2286;51.570;7.090;2023-07-30T12:16:00;5.00;;;1.83;;
4547;SDS011;2286;51.570;7.090;2023-07-30T12:18:27;5.57;;;1.53;;
4547;SDS011;2286;51.570;7.090;2023-07-30T12:20:54;7.23;;;1.63;;
4547;SDS011;2286;51.570;7.090;2023-07-30T12:23:23;4.37;;;1.70;;
4547;SDS011;2286;51.570;7.090;2023-07-30T12:25:50;5.70;;;2.10;;
4547;SDS011;2286;51.570;7.090;2023-07-30T12:28:19;3.90;;;1.60;;
4547;SDS011;2286;51.570;7.090;2023-07-30T12:30:48;3.83;;;1.63;;
4547;SDS011;2286;51.570;7.090;2023-07-30T12:33:15;4.77;;;1.70;;
4547;SDS011;2286;51.570;7.090;2023-07-30T12:35:42;3.77;;;1.80;;
4547;SDS011;2286;51.570;7.090;2023-07-30T12:38:09;4.37;;;1.43;;
4547;SDS011;2286;51.570;7.090;2023-07-30T12:40:36;3.90;;;1.47;;
4547;SDS011;2286;51.570;7.090;2023-07-30T12:43:03;4.03;;;2.00;;
4547;SDS011;2286;51.570;7.090;2023-07-30T12:45:30;6.80;;;1.90;;
4547;SDS011;2286;51.570;7.090;2023-07-30T12:48:00;3.10;;;1.80;;
4547;SDS011;2286;51.570;7.090;2023-07-30T12:50:27;3.07;;;1.80;;
4547;SDS011;2286;51.570;7.090;2023-07-30T12:52:54;6.70;;;2.00;;
4547;SDS011;2286;51.570;7.090;2023-07-30T12:55:21;3.10;;;1.40;;
4547;SDS011;2286;51.570;7.090;2023-07-30T12:57:48;7.50;;;1.60;;
4547;SDS011;2286;51.570;7.090;2023-07-30T13:00:16;2.50;;;1.30;;
4547;SDS011;2286;51.570;7.090;2023-07-30T13:02:43;3.27;;;1.50;;
4547;SDS011;2286;51.570;7.090;2023-07-30T13:05:12;3.70;;;1.93;;
4547;SDS011;2286;51.570;7.090;2023-07-30T13:07:40;2.60;;;1.27;;
4547;SDS011;2286;51.570;7.090;2023-07-30T13:10:08;5.40;;;2.37;;
4547;SDS011;2286;51.570;7.090;2023-07-30T13:12:35;6.20;;;1.87;;
4547;SDS011;2286;51.570;7.090;2023-07-30T13:15:03;6.47;;;1.83;;
4547;SDS011;2286;51.570;7.090;2023-07-30T13:17:30;3.40;;;1.80;;
4547;SDS011;2286;51.570;7.090;2023-07-30T13:19:57;3.07;;;2.10;;
4547;SDS011;2286;51.570;7.090;2023-07-30T13:22:26;3.63;;;1.97;;
4547;SDS011;2286;51.570;7.090;2023-07-30T13:24:53;4.77;;;2.13;;
4547;SDS011;2286;51.570;7.090;2023-07-30T13:27:20;4.20;;;1.67;;
4547;SDS011;2286;51.570;7.090;2023-07-30T13:29:47;5.50;;;1.70;;
4547;SDS011;2286;51.570;7.090;2023-07-30T13:32:14;6.73;;;2.13;;
4547;SDS011;2286;51.570;7.090;2023-07-30T13:34:41;5.07;;;2.10;;
4547;SDS011;2286;51.570;7.090;2023-07-30T13:37:08;6.10;;;2.53;;
4547;SDS011;2286;51.570;7.090;2023-07-30T13:39:36;6.57;;;1.90;;
4547;SDS011;2286;51.570;7.090;2023-07-30T13:42:04;4.73;;;2.03;;
4547;SDS011;2286;51.570;7.090;2023-07-30T13:44:31;3.23;;;1.70;;
4547;SDS011;2286;51.570;7.090;2023-07-30T13:46:58;4.90;;;2.10;;
4547;SDS011;2286;51.570;7.090;2023-07-30T13:49:25;2.80;;;1.40;;
4547;SDS011;2286;51.570;7.090;2023-07-30T13:51:52;3.20;;;1.50;;
4547;SDS011;2286;51.570;7.090;2023-07-30T13:54:19;3.20;;;1.50;;
4547;SDS011;2286;51.570;7.090;2023-07-30T13:56:48;2.90;;;2.17;;
4547;SDS011;2286;51.570;7.090;2023-07-30T13:59:15;3.70;;;1.90;;
4547;SDS011;2286;51.570;7.090;2023-07-30T14:01:42;2.87;;;1.37;;
4547;SDS011;2286;51.570;7.090;2023-07-30T14:04:09;3.20;;;1.50;;
4547;SDS011;2286;51.570;7.090;2023-07-30T14:06:36;1.63;;;1.27;;
4547;SDS011;2286;51.570;7.090;2023-07-30T14:09:03;3.43;;;1.50;;
4547;SDS011;2286;51.570;7.090;2023-07-30T14:11:30;3.33;;;1.67;;
4547;SDS011;2286;51.570;7.090;2023-07-30T14:13:58;5.07;;;1.63;;
4547;SDS011;2286;51.570;7.090;2023-07-30T14:16:26;5.03;;;1.60;;
4547;SDS011;2286;51.570;7.090;2023-07-30T14:18:53;2.10;;;1.40;;
4547;SDS011;2286;51.570;7.090;2023-07-30T14:21:20;2.63;;;1.53;;
4547;SDS011;2286;51.570;7.090;2023-07-30T14:23:47;5.17;;;1.70;;
4547;SDS011;2286;51.570;7.090;2023-07-30T14:26:14;5.10;;;1.70;;
4547;SDS011;2286;51.570;7.090;2023-07-30T14:28:41;6.57;;;2.07;;
4547;SDS011;2286;51.570;7.090;2023-07-30T14:31:10;2.80;;;1.40;;
4547;SDS011;2286;51.570;7.090;2023-07-30T14:33:37;3.20;;;1.60;;
4547;SDS011;2286;51.570;7.090;2023-07-30T14:36:04;3.60;;;1.70;;
4547;SDS011;2286;51.570;7.090;2023-07-30T14:38:31;5.47;;;2.03;;
4547;SDS011;2286;51.570;7.090;2023-07-30T14:40:59;6.00;;;2.10;;
4547;SDS011;2286;51.570;7.090;2023-07-30T14:43:27;4.40;;;1.83;;
4547;SDS011;2286;51.570;7.090;2023-07-30T14:45:54;3.33;;;1.70;;
4547;SDS011;2286;51.570;7.090;2023-07-30T14:48:23;5.13;;;1.63;;
4547;SDS011;2286;51.570;7.090;2023-07-30T14:50:50;3.27;;;2.00;;
4547;SDS011;2286;51.570;7.090;2023-07-30T14:53:17;5.63;;;1.90;;
4547;SDS011;2286;51.570;7.090;2023-07-30T14:55:44;3.27;;;1.93;;
4547;SDS011;2286;51.570;7.090;2023-07-30T14:58:11;8.00;;;2.30;;
4547;SDS011;2286;51.570;7.090;2023-07-30T15:00:38;4.73;;;1.90;;
4547;SDS011;2286;51.570;7.090;2023-07-30T15:03:06;3.53;;;1.87;;
4547;SDS011;2286;51.570;7.090;2023-07-30T15:05:34;3.70;;;1.67;;
4547;SDS011;2286;51.570;7.090;2023-07-30T15:08:02;3.43;;;2.07;;
4547;SDS011;2286;51.570;7.090;2023-07-30T15:10:29;6.90;;;2.43;;
4547;SDS011;2286;51.570;7.090;2023-07-30T15:12:56;2.87;;;1.70;;